createdAt,value
2022-07-30T00:02:38.433Z,107.28
2022-07-30T00:05:25.464Z,103.45
2022-07-30T00:08:12.559Z,107.63
2022-07-30T00:10:59.513Z,101.60
2022-07-30T00:13:46.462Z,106.82
2022-07-30T00:16:33.597Z,108.45
2022-07-30T00:19:20.803Z,103.95
2022-07-30T00:22:09.608Z,104.72
2022-07-30T00:24:56.593Z,100.47
2022-07-30T00:27:44.422Z,104.10
2022-07-30T00:30:31.474Z,106.00
2022-07-30T00:33:18.471Z,103.50
2022-07-30T00:36:05.695Z,103.25
2022-07-30T00:38:52.755Z,104.45
2022-07-30T00:42:03.430Z,102.65
2022-07-30T00:44:50.469Z,99.60
2022-07-30T00:47:38.094Z,102.90
2022-07-30T00:50:25.065Z,102.38
2022-07-30T00:53:12.087Z,101.20
2022-07-30T00:55:59.108Z,100.55
2022-07-30T00:58:46.056Z,102.25
2022-07-30T01:01:33.730Z,103.80
2022-07-30T01:04:21.409Z,104.25
2022-07-30T01:07:08.374Z,102.50
2022-07-30T01:09:55.339Z,99.60
2022-07-30T01:12:43.086Z,102.10
2022-07-30T01:15:30.204Z,103.65
2022-07-30T01:18:18.162Z,99.93
2022-07-30T01:21:09.486Z,103.82
2022-07-30T01:24:03.692Z,99.07
2022-07-30T01:26:51.827Z,101.57
2022-07-30T01:29:43.360Z,105.30
2022-07-30T01:32:31.641Z,104.32
2022-07-30T01:35:21.875Z,100.38
2022-07-30T01:38:11.445Z,102.05
2022-07-30T01:40:59.352Z,106.45
2022-07-30T01:43:47.637Z,100.95
2022-07-30T01:46:35.184Z,101.82
2022-07-30T01:49:24.108Z,99.82
2022-07-30T01:52:12.384Z,97.15
2022-07-30T01:55:02.248Z,100.25
2022-07-30T01:57:50.287Z,100.05
2022-07-30T02:00:40.188Z,99.00
2022-07-30T02:03:27.766Z,97.95
2022-07-30T02:06:21.297Z,99.90
2022-07-30T02:09:11.046Z,102.20
2022-07-30T02:12:18.939Z,102.07
2022-07-30T02:15:17.455Z,101.63
2022-07-30T02:18:16.915Z,102.85
2022-07-30T02:21:07.531Z,104.57
2022-07-30T02:23:56.489Z,101.93
2022-07-30T02:26:46.391Z,101.03
2022-07-30T02:29:35.706Z,99.07
2022-07-30T02:32:24.709Z,102.95
2022-07-30T02:35:20.130Z,102.95
2022-07-30T02:38:09.275Z,98.35
2022-07-30T02:40:59.300Z,101.57
2022-07-30T02:43:48.282Z,99.70
2022-07-30T02:46:37.956Z,100.80
2022-07-30T02:49:27.870Z,99.40
2022-07-30T02:52:16.527Z,98.55
2022-07-30T02:55:05.230Z,97.90
2022-07-30T02:57:54.033Z,97.30
2022-07-30T03:00:42.808Z,97.22
2022-07-30T03:03:30.859Z,98.53
2022-07-30T03:06:20.004Z,97.72
2022-07-30T03:09:07.926Z,101.47
2022-07-30T03:11:56.220Z,97.53
2022-07-30T03:14:43.481Z,100.20
2022-07-30T03:17:38.228Z,96.00
2022-07-30T03:20:29.737Z,100.28
2022-07-30T03:23:19.475Z,99.93
2022-07-30T03:26:08.745Z,101.07
2022-07-30T03:28:57.169Z,100.07
2022-07-30T03:31:45.086Z,100.85
2022-07-30T03:34:35.007Z,101.13
2022-07-30T03:37:22.275Z,99.72
2022-07-30T03:40:09.941Z,97.57
2022-07-30T03:42:57.341Z,99.38
2022-07-30T03:45:45.577Z,100.82
2022-07-30T03:48:34.923Z,100.70
2022-07-30T03:51:22.271Z,99.90
2022-07-30T03:54:13.766Z,98.60
2022-07-30T03:57:03.027Z,103.13
2022-07-30T03:59:51.843Z,99.97
2022-07-30T04:02:46.423Z,99.47
2022-07-30T04:05:41.342Z,102.25
2022-07-30T04:08:29.125Z,97.70
2022-07-30T04:11:16.187Z,102.10
2022-07-30T04:14:03.452Z,100.35
2022-07-30T04:16:59.474Z,98.30
2022-07-30T04:20:01.866Z,100.78
2022-07-30T04:22:50.250Z,98.22
2022-07-30T04:25:37.839Z,99.22
2022-07-30T04:28:27.042Z,97.75
2022-07-30T04:31:14.527Z,99.38
2022-07-30T04:34:04.617Z,99.78
2022-07-30T04:36:51.972Z,98.78
2022-07-30T04:39:38.954Z,98.03
2022-07-30T04:42:28.017Z,99.53
2022-07-30T04:45:15.166Z,100.18
2022-07-30T04:48:02.147Z,100.63
2022-07-30T04:50:51.435Z,98.25
2022-07-30T04:53:40.317Z,100.82
2022-07-30T04:56:30.730Z,102.05
2022-07-30T04:59:18.865Z,102.68
2022-07-30T05:02:08.698Z,100.68
2022-07-30T05:04:57.689Z,105.90
2022-07-30T05:07:47.190Z,103.43
2022-07-30T05:10:34.428Z,103.05
2022-07-30T05:13:22.316Z,107.78
2022-07-30T05:16:09.873Z,104.97
2022-07-30T05:18:56.914Z,110.22
2022-07-30T05:21:44.338Z,107.80
2022-07-30T05:24:31.366Z,109.03
2022-07-30T05:27:20.387Z,111.38
2022-07-30T05:30:08.315Z,114.65
2022-07-30T05:32:56.049Z,124.43
2022-07-30T05:35:43.261Z,129.63
2022-07-30T05:38:30.216Z,132.10
2022-07-30T05:41:24.557Z,141.13
2022-07-30T05:44:22.263Z,139.77
2022-07-30T05:47:10.997Z,135.55
2022-07-30T05:50:01.586Z,133.23
2022-07-30T05:52:51.659Z,135.53
2022-07-30T05:55:38.709Z,136.00
2022-07-30T05:58:25.661Z,136.05
2022-07-30T06:01:12.860Z,132.00
2022-07-30T06:03:59.934Z,129.25
2022-07-30T06:06:47.125Z,138.77
2022-07-30T06:09:37.104Z,142.75
2022-07-30T06:12:24.355Z,146.40
2022-07-30T06:15:11.619Z,147.50
2022-07-30T06:18:01.556Z,147.55
2022-07-30T06:20:51.825Z,148.00
2022-07-30T06:23:39.237Z,148.32
2022-07-30T06:26:26.257Z,148.88
2022-07-30T06:29:13.538Z,152.55
2022-07-30T06:32:00.730Z,150.98
2022-07-30T06:34:47.713Z,156.93
2022-07-30T06:38:04.900Z,151.27
2022-07-30T06:40:41.861Z,155.07
2022-07-30T06:43:28.931Z,158.68
2022-07-30T06:46:16.028Z,165.18
2022-07-30T06:49:03.857Z,168.45
2022-07-30T06:51:51.438Z,159.13
2022-07-30T06:54:38.545Z,159.57
2022-07-30T06:57:25.708Z,157.52
2022-07-30T07:00:13.119Z,153.00
2022-07-30T07:03:00.179Z,153.70
2022-07-30T07:05:47.347Z,159.13
2022-07-30T07:08:38.920Z,165.85
2022-07-30T07:11:26.064Z,168.02
2022-07-30T07:14:13.087Z,172.45
2022-07-30T07:17:00.339Z,175.43
2022-07-30T07:20:01.632Z,174.00
2022-07-30T07:22:49.606Z,178.45
2022-07-30T07:25:36.841Z,177.43
2022-07-30T07:28:33.312Z,181.98
2022-07-30T07:32:05.618Z,174.98
2022-07-30T07:34:28.128Z,174.23
2022-07-30T07:37:16.093Z,174.55
2022-07-30T07:40:04.178Z,185.85
2022-07-30T07:42:51.264Z,181.05
2022-07-30T07:45:39.298Z,180.40
2022-07-30T07:48:26.371Z,176.27
2022-07-30T07:51:13.347Z,179.85
2022-07-30T07:54:20.492Z,189.20
2022-07-30T07:57:10.380Z,191.90
2022-07-30T07:59:58.846Z,188.50
2022-07-30T08:02:46.772Z,186.60
2022-07-30T08:05:58.192Z,189.82
2022-07-30T08:08:41.239Z,188.30
2022-07-30T08:11:28.927Z,191.95
2022-07-30T08:14:15.941Z,190.57
2022-07-30T08:17:03.210Z,192.00
2022-07-30T08:19:51.047Z,185.30
2022-07-30T08:22:38.097Z,184.32
2022-07-30T08:25:25.542Z,187.90
2022-07-30T08:28:35.215Z,194.70
2022-07-30T08:31:19.742Z,192.23
2022-07-30T08:34:06.969Z,186.80
2022-07-30T08:36:54.068Z,192.88
2022-07-30T08:39:41.355Z,188.07
2022-07-30T08:42:29.290Z,192.50
2022-07-30T08:45:17.566Z,184.55
2022-07-30T08:48:13.675Z,189.35
2022-07-30T08:51:03.672Z,187.77
2022-07-30T08:53:51.318Z,193.38
2022-07-30T08:56:38.586Z,190.82
2022-07-30T08:59:59.410Z,198.70
2022-07-30T09:02:34.866Z,194.40
2022-07-30T09:05:22.014Z,180.50
2022-07-30T09:08:09.143Z,180.90
2022-07-30T09:10:56.410Z,190.73
2022-07-30T09:13:44.870Z,185.95
2022-07-30T09:16:32.128Z,172.52
2022-07-30T09:19:21.833Z,186.27
2022-07-30T09:22:08.795Z,186.65
2022-07-30T09:24:55.773Z,176.23
2022-07-30T09:27:50.289Z,183.35
2022-07-30T09:33:36.570Z,206.10
2022-07-30T09:36:23.831Z,198.15
2022-07-30T09:39:11.142Z,181.32
2022-07-30T09:41:58.770Z,189.15
2022-07-30T09:44:46.946Z,188.50
2022-07-30T09:47:38.982Z,204.18
2022-07-30T09:50:30.468Z,204.27
2022-07-30T09:53:18.186Z,212.73
2022-07-30T09:56:31.572Z,206.40
2022-07-30T09:59:34.973Z,211.23
2022-07-30T10:02:31.960Z,205.27
2022-07-30T10:05:20.693Z,212.07
2022-07-30T10:08:16.730Z,207.20
2022-07-30T10:11:09.570Z,210.57
2022-07-30T10:13:59.304Z,216.25
2022-07-30T10:16:47.568Z,210.45
2022-07-30T10:19:40.034Z,213.32
2022-07-30T10:22:29.404Z,213.25
2022-07-30T10:25:23.080Z,216.25
2022-07-30T10:28:16.517Z,220.65
2022-07-30T10:31:08.290Z,229.00
2022-07-30T10:34:13.850Z,231.70
2022-07-30T10:37:04.734Z,229.82
2022-07-30T10:39:59.214Z,223.77
2022-07-30T10:42:54.833Z,212.50
2022-07-30T10:45:58.393Z,195.45
2022-07-30T10:48:48.220Z,185.73
2022-07-30T10:51:43.834Z,179.45
2022-07-30T10:54:33.652Z,198.38
2022-07-30T10:57:32.096Z,205.57
2022-07-30T11:00:20.051Z,202.23
2022-07-30T11:03:14.838Z,218.48
2022-07-30T11:06:24.585Z,221.00
2022-07-30T11:09:41.086Z,223.35
2022-07-30T11:12:47.405Z,218.95
2022-07-30T11:15:59.921Z,212.93
2022-07-30T11:19:56.542Z,215.68
2022-07-30T11:22:41.362Z,196.05
2022-07-30T11:25:50.051Z,189.90
2022-07-30T11:28:37.782Z,202.20
2022-07-30T11:31:36.983Z,200.30
2022-07-30T11:34:33.449Z,205.00
2022-07-30T11:37:22.179Z,220.75
2022-07-30T11:40:26.177Z,226.10
2022-07-30T11:43:36.295Z,218.70
2022-07-30T11:46:29.272Z,219.25
2022-07-30T11:49:17.044Z,209.45
2022-07-30T11:52:04.563Z,205.25
2022-07-30T11:54:55.715Z,214.93
2022-07-30T11:57:42.949Z,218.07
2022-07-30T12:00:39.040Z,208.35
2022-07-30T12:03:31.849Z,198.57
2022-07-30T12:06:19.979Z,198.00
2022-07-30T12:09:07.088Z,189.57
2022-07-30T12:11:57.781Z,192.25
2022-07-30T12:14:44.879Z,195.20
2022-07-30T12:17:44.986Z,222.38
2022-07-30T12:20:32.034Z,215.98
2022-07-30T12:23:21.867Z,205.35
2022-07-30T12:26:20.508Z,193.50
2022-07-30T12:29:11.716Z,202.13
2022-07-30T12:31:58.938Z,214.65
2022-07-30T12:34:55.981Z,218.35
2022-07-30T12:38:02.556Z,223.65
2022-07-30T12:40:58.534Z,203.35
2022-07-30T12:43:49.782Z,195.77
2022-07-30T12:46:41.628Z,203.68
2022-07-30T12:49:39.406Z,200.57
2022-07-30T12:52:35.968Z,217.05
2022-07-30T12:55:34.369Z,221.55
2022-07-30T12:58:21.353Z,215.25
2022-07-30T13:01:09.973Z,214.68
2022-07-30T13:04:05.523Z,222.27
2022-07-30T13:07:04.841Z,230.02
2022-07-30T13:10:10.201Z,221.68
2022-07-30T13:12:58.296Z,212.73
2022-07-30T13:15:56.358Z,218.68
2022-07-30T13:18:43.643Z,221.05
2022-07-30T13:21:30.751Z,225.63
2022-07-30T13:24:18.726Z,225.55
2022-07-30T13:27:06.063Z,226.88
2022-07-30T13:29:53.396Z,238.30
2022-07-30T13:32:40.455Z,229.90
2022-07-30T13:35:27.893Z,233.98
2022-07-30T13:38:15.709Z,241.70
2022-07-30T13:41:04.481Z,238.68
2022-07-30T13:43:51.489Z,239.25
2022-07-30T13:46:41.198Z,240.65
2022-07-30T13:49:28.573Z,238.30
2022-07-30T13:52:17.213Z,234.45
2022-07-30T13:55:04.467Z,227.32
2022-07-30T13:57:51.403Z,217.10
2022-07-30T14:00:38.984Z,207.50
2022-07-30T14:03:25.902Z,212.88
2022-07-30T14:06:12.971Z,219.43
2022-07-30T14:08:59.905Z,229.27
2022-07-30T14:11:46.917Z,218.82
2022-07-30T14:14:33.877Z,222.73
2022-07-30T14:17:20.808Z,233.32
2022-07-30T14:20:08.307Z,242.57
2022-07-30T14:22:55.420Z,239.95
2022-07-30T14:25:44.210Z,238.43
2022-07-30T14:28:31.176Z,239.93
2022-07-30T14:31:18.307Z,242.13
2022-07-30T14:34:05.489Z,236.65
2022-07-30T14:36:52.885Z,232.02
2022-07-30T14:39:40.032Z,221.15
2022-07-30T14:42:27.553Z,207.00
2022-07-30T14:45:14.674Z,200.77
2022-07-30T14:48:01.852Z,214.57
2022-07-30T14:51:12.360Z,224.85
2022-07-30T14:53:57.076Z,220.55
2022-07-30T14:56:44.150Z,222.75
2022-07-30T14:59:31.174Z,225.07
2022-07-30T15:02:18.273Z,222.50
2022-07-30T15:05:05.776Z,222.85
2022-07-30T15:07:52.718Z,220.50
2022-07-30T15:10:40.188Z,218.48
2022-07-30T15:13:29.302Z,218.75
2022-07-30T15:16:19.298Z,217.07
2022-07-30T15:19:06.221Z,215.15
2022-07-30T15:21:53.155Z,208.75
2022-07-30T15:24:40.201Z,205.43
2022-07-30T15:27:33.705Z,206.38
2022-07-30T15:30:21.607Z,204.07
2022-07-30T15:33:08.940Z,206.45
2022-07-30T15:35:56.184Z,204.27
2022-07-30T15:38:43.647Z,208.13
2022-07-30T15:41:33.882Z,211.82
2022-07-30T15:44:21.087Z,205.27
2022-07-30T15:47:11.511Z,204.25
2022-07-30T15:50:00.232Z,207.38
2022-07-30T15:52:47.389Z,209.77
2022-07-30T15:55:47.186Z,209.25
2022-07-30T15:58:36.156Z,205.02
2022-07-30T16:01:24.598Z,208.20
2022-07-30T16:04:19.400Z,200.48
2022-07-30T16:07:08.044Z,203.32
2022-07-30T16:09:55.080Z,202.82
2022-07-30T16:12:42.388Z,198.88
2022-07-30T16:15:29.649Z,195.95
2022-07-30T16:18:16.800Z,198.65
2022-07-30T16:21:04.001Z,199.13
2022-07-30T16:23:52.612Z,196.88
2022-07-30T16:26:39.780Z,201.70
2022-07-30T16:29:27.099Z,196.85
2022-07-30T16:32:14.480Z,196.15
2022-07-30T16:35:01.776Z,198.80
2022-07-30T16:37:48.869Z,200.63
2022-07-30T16:40:36.407Z,198.05
2022-07-30T16:43:23.438Z,194.88
2022-07-30T16:46:11.133Z,195.23
2022-07-30T16:48:58.355Z,203.13
2022-07-30T16:51:45.467Z,197.63
2022-07-30T16:54:32.768Z,193.18
2022-07-30T16:57:19.790Z,198.73
2022-07-30T17:00:08.602Z,191.80
2022-07-30T17:02:55.565Z,194.02
2022-07-30T17:05:45.277Z,193.63
2022-07-30T17:08:33.071Z,190.07
2022-07-30T17:11:46.168Z,187.88
2022-07-30T17:14:27.971Z,187.73
2022-07-30T17:17:14.930Z,185.43
2022-07-30T17:20:04.010Z,183.73
2022-07-30T17:22:51.034Z,187.00
2022-07-30T17:25:38.130Z,183.98
2022-07-30T17:28:26.810Z,181.52
2022-07-30T17:31:14.237Z,184.23
2022-07-30T17:34:01.159Z,186.63
2022-07-30T17:36:51.758Z,238.60
2022-07-30T17:40:27.526Z,209.30
2022-07-30T17:42:46.720Z,184.45
2022-07-30T17:45:35.676Z,176.75
2022-07-30T17:48:22.734Z,176.93
2022-07-30T17:51:10.141Z,177.85
2022-07-30T17:53:57.153Z,174.05
2022-07-30T17:56:44.868Z,175.05
2022-07-30T17:59:32.336Z,172.18
2022-07-30T18:02:20.095Z,173.13
2022-07-30T18:05:15.712Z,169.07
2022-07-30T18:08:02.719Z,169.70
2022-07-30T18:10:50.591Z,171.00
2022-07-30T18:13:37.634Z,171.77
2022-07-30T18:16:25.344Z,173.50
2022-07-30T18:19:22.807Z,180.70
2022-07-30T18:22:14.695Z,331.48
2022-07-30T18:25:02.299Z,188.93
2022-07-30T18:27:56.086Z,449.52
2022-07-30T18:30:43.179Z,247.38
2022-07-30T18:33:30.267Z,169.75
2022-07-30T18:36:17.321Z,183.60
2022-07-30T18:39:04.624Z,174.57
2022-07-30T18:41:51.681Z,163.45
2022-07-30T18:44:38.693Z,164.63
2022-07-30T18:47:25.951Z,162.20
2022-07-30T18:50:15.929Z,159.15
2022-07-30T18:53:15.364Z,159.68
2022-07-30T18:56:03.372Z,161.35
2022-07-30T18:58:50.992Z,164.63
2022-07-30T19:01:39.286Z,156.43
2022-07-30T19:04:26.879Z,154.57
2022-07-30T19:07:14.085Z,152.93
2022-07-30T19:10:01.584Z,149.90
2022-07-30T19:12:48.563Z,148.77
2022-07-30T19:15:36.177Z,155.13
2022-07-30T19:18:23.293Z,157.05
2022-07-30T19:21:14.070Z,154.07
2022-07-30T19:24:01.914Z,154.52
2022-07-30T19:26:49.306Z,149.88
2022-07-30T19:29:37.366Z,153.07
2022-07-30T19:32:26.221Z,150.57
2022-07-30T19:35:13.458Z,145.45
2022-07-30T19:38:01.787Z,150.45
2022-07-30T19:40:50.026Z,148.80
2022-07-30T19:43:37.745Z,149.10
2022-07-30T19:46:26.320Z,149.73
2022-07-30T19:49:13.428Z,146.43
2022-07-30T19:52:10.690Z,147.38
2022-07-30T19:55:30.509Z,144.55
2022-07-30T19:58:17.866Z,144.82
2022-07-30T20:01:08.515Z,145.50
2022-07-30T20:03:55.846Z,147.35
2022-07-30T20:06:49.187Z,145.23
2022-07-30T20:09:36.376Z,145.27
2022-07-30T20:12:24.492Z,146.13
2022-07-30T20:15:14.901Z,147.60
2022-07-30T20:18:01.983Z,144.90
2022-07-30T20:20:50.442Z,145.55
2022-07-30T20:23:38.106Z,145.73
2022-07-30T20:26:29.100Z,146.10
2022-07-30T20:29:19.264Z,148.40
2022-07-30T20:32:08.461Z,143.68
2022-07-30T20:34:55.631Z,141.43
2022-07-30T20:37:54.999Z,139.43
2022-07-30T20:40:46.745Z,140.70
2022-07-30T20:43:33.723Z,139.48
2022-07-30T20:46:35.107Z,137.23
2022-07-30T20:49:33.924Z,139.75
2022-07-30T20:52:22.320Z,141.40
2022-07-30T20:55:12.171Z,141.20
2022-07-30T20:58:13.786Z,138.90
2022-07-30T21:01:04.901Z,135.07
2022-07-30T21:03:51.913Z,136.23
2022-07-30T21:06:44.367Z,132.95
2022-07-30T21:09:52.286Z,133.63
2022-07-30T21:12:39.907Z,136.70
2022-07-30T21:15:26.974Z,130.73
2022-07-30T21:18:19.495Z,133.23
2022-07-30T21:21:07.887Z,134.15
2022-07-30T21:23:59.144Z,132.68
2022-07-30T21:26:49.045Z,129.77
2022-07-30T21:29:36.085Z,130.57
2022-07-30T21:32:25.604Z,127.70
2022-07-30T21:35:12.940Z,127.93
2022-07-30T21:38:02.396Z,130.88
2022-07-30T21:40:49.991Z,126.82
2022-07-30T21:43:37.002Z,130.60
2022-07-30T21:46:26.970Z,128.02
2022-07-30T21:49:13.968Z,129.43
2022-07-30T21:52:01.786Z,128.82
2022-07-30T21:54:50.499Z,126.30
2022-07-30T21:57:37.594Z,125.93
2022-07-30T22:01:00.970Z,125.47
2022-07-30T22:04:08.268Z,124.97
2022-07-30T22:06:56.151Z,126.18
2022-07-30T22:09:47.628Z,120.40
2022-07-30T22:12:34.621Z,123.43
2022-07-30T22:15:21.886Z,126.63
2022-07-30T22:18:12.627Z,122.68
2022-07-30T22:20:59.672Z,122.18
2022-07-30T22:23:56.707Z,124.63
2022-07-30T22:26:51.004Z,120.90
2022-07-30T22:29:38.761Z,123.13
2022-07-30T22:32:25.803Z,122.20
2022-07-30T22:38:22.935Z,121.07
2022-07-30T22:41:14.170Z,122.00
2022-07-30T22:44:01.281Z,119.15
2022-07-30T22:46:48.226Z,120.05
2022-07-30T22:49:45.684Z,119.57
2022-07-30T22:52:52.446Z,121.53
2022-07-30T22:55:45.972Z,119.68
2022-07-30T22:58:32.921Z,122.50
2022-07-30T23:01:19.872Z,118.78
2022-07-30T23:04:09.952Z,117.28
2022-07-30T23:06:57.034Z,116.32
2022-07-30T23:09:51.532Z,118.10
2022-07-30T23:12:32.860Z,124.65
2022-07-30T23:12:39.197Z,111.60
2022-07-30T23:15:26.461Z,113.40
2022-07-30T23:18:15.897Z,112.85
2022-07-30T23:21:03.205Z,110.63
2022-07-30T23:23:50.321Z,113.22
2022-07-30T23:26:37.280Z,113.85
2022-07-30T23:29:24.448Z,115.85
2022-07-30T23:32:11.478Z,117.45
2022-07-30T23:34:58.738Z,112.30
2022-07-30T23:37:48.010Z,112.03
2022-07-30T23:40:35.937Z,111.40
2022-07-30T23:43:22.851Z,112.82
2022-07-30T23:46:11.189Z,114.00
2022-07-30T23:48:58.669Z,114.90
2022-07-30T23:51:45.635Z,112.68
2022-07-30T23:54:32.628Z,113.15
2022-07-30T23:57:19.606Z,109.10
